Terminal Aerodrome Forecast
Issued by NWS

Home | Current Version | Previous Version | Text Only | Print | Product List | Glossary On
Versions: 1 2 3 4 5 6 7 8 9 10 11 12 13 14
000
FTUS46 KSEW 300500
TAFCLM
TAF
KCLM 300520Z 3006/3106 30012KT P6SM VCFG SKC
      TEMPO 3009/3012 2SM BR BKN002
     FM301200 28006KT 1SM BR OVC002
     FM301600 32006KT P6SM SCT005
     FM301900 32008KT P6SM SKC=

USA.gov is the U.S. government's official web portal to all federal, state and local government web resources and services.